sensor_id;sensor_type;location;lat;lon;timestamp;P1;durP1;ratioP1;P2;durP2;ratioP2
54189;SDS011;40340;53.208;6.582;2022-08-19T00:00:44;10.83;;;8.13;;
54189;SDS011;40340;53.208;6.582;2022-08-19T00:03:09;13.30;;;8.93;;
54189;SDS011;40340;53.208;6.582;2022-08-19T00:05:35;12.20;;;8.57;;
54189;SDS011;40340;53.208;6.582;2022-08-19T00:08:01;13.70;;;8.40;;
54189;SDS011;40340;53.208;6.582;2022-08-19T00:10:27;12.77;;;8.20;;
54189;SDS011;40340;53.208;6.582;2022-08-19T00:12:52;10.80;;;8.30;;
54189;SDS011;40340;53.208;6.582;2022-08-19T00:15:19;16.47;;;8.50;;
54189;SDS011;40340;53.208;6.582;2022-08-19T00:17:46;9.82;;;8.00;;
54189;SDS011;40340;53.208;6.582;2022-08-19T00:20:14;11.45;;;7.50;;
54189;SDS011;40340;53.208;6.582;2022-08-19T00:22:44;10.30;;;7.18;;
54189;SDS011;40340;53.208;6.582;2022-08-19T00:25:12;11.20;;;7.72;;
54189;SDS011;40340;53.208;6.582;2022-08-19T00:27:38;10.50;;;7.10;;
54189;SDS011;40340;53.208;6.582;2022-08-19T00:30:05;12.90;;;8.03;;
54189;SDS011;40340;53.208;6.582;2022-08-19T00:32:32;10.05;;;6.95;;
54189;SDS011;40340;53.208;6.582;2022-08-19T00:34:59;10.57;;;7.70;;
54189;SDS011;40340;53.208;6.582;2022-08-19T00:37:25;9.13;;;7.85;;
54189;SDS011;40340;53.208;6.582;2022-08-19T00:39:51;10.73;;;7.73;;
54189;SDS011;40340;53.208;6.582;2022-08-19T00:42:19;11.50;;;7.40;;
54189;SDS011;40340;53.208;6.582;2022-08-19T00:44:45;9.55;;;7.32;;
54189;SDS011;40340;53.208;6.582;2022-08-19T00:47:11;9.23;;;7.20;;
54189;SDS011;40340;53.208;6.582;2022-08-19T00:49:39;10.30;;;7.23;;
54189;SDS011;40340;53.208;6.582;2022-08-19T00:52:14;8.63;;;6.50;;
54189;SDS011;40340;53.208;6.582;2022-08-19T00:54:41;9.90;;;7.28;;
54189;SDS011;40340;53.208;6.582;2022-08-19T00:57:10;7.75;;;6.80;;
54189;SDS011;40340;53.208;6.582;2022-08-19T00:59:40;9.18;;;6.65;;
54189;SDS011;40340;53.208;6.582;2022-08-19T01:02:08;11.02;;;7.72;;
54189;SDS011;40340;53.208;6.582;2022-08-19T01:04:33;10.67;;;7.57;;
54189;SDS011;40340;53.208;6.582;2022-08-19T01:06:59;10.70;;;8.50;;
54189;SDS011;40340;53.208;6.582;2022-08-19T01:09:26;15.70;;;9.82;;
54189;SDS011;40340;53.208;6.582;2022-08-19T01:11:52;19.43;;;12.03;;
54189;SDS011;40340;53.208;6.582;2022-08-19T01:14:17;18.90;;;13.27;;
54189;SDS011;40340;53.208;6.582;2022-08-19T01:16:44;20.38;;;14.70;;
54189;SDS011;40340;53.208;6.582;2022-08-19T01:22:03;17.80;;;12.88;;
54189;SDS011;40340;53.208;6.582;2022-08-19T01:24:39;23.90;;;18.00;;
54189;SDS011;40340;53.208;6.582;2022-08-19T01:27:05;25.80;;;18.13;;
54189;SDS011;40340;53.208;6.582;2022-08-19T01:31:58;22.67;;;14.98;;
54189;SDS011;40340;53.208;6.582;2022-08-19T01:34:25;16.58;;;12.77;;
54189;SDS011;40340;53.208;6.582;2022-08-19T01:36:51;18.07;;;11.77;;
54189;SDS011;40340;53.208;6.582;2022-08-19T01:39:18;14.63;;;10.77;;
54189;SDS011;40340;53.208;6.582;2022-08-19T01:41:47;15.68;;;10.90;;
54189;SDS011;40340;53.208;6.582;2022-08-19T01:44:13;16.52;;;11.32;;
54189;SDS011;40340;53.208;6.582;2022-08-19T01:46:40;12.82;;;9.80;;
54189;SDS011;40340;53.208;6.582;2022-08-19T01:49:07;12.57;;;9.60;;
54189;SDS011;40340;53.208;6.582;2022-08-19T01:51:33;10.30;;;8.67;;
54189;SDS011;40340;53.208;6.582;2022-08-19T01:54:00;13.82;;;9.30;;
54189;SDS011;40340;53.208;6.582;2022-08-19T01:56:26;15.27;;;9.43;;
54189;SDS011;40340;53.208;6.582;2022-08-19T01:59:03;10.47;;;9.27;;
54189;SDS011;40340;53.208;6.582;2022-08-19T02:01:33;11.95;;;9.57;;
54189;SDS011;40340;53.208;6.582;2022-08-19T02:03:59;12.85;;;9.35;;
54189;SDS011;40340;53.208;6.582;2022-08-19T02:06:28;13.70;;;10.38;;
54189;SDS011;40340;53.208;6.582;2022-08-19T02:08:55;12.35;;;9.55;;
54189;SDS011;40340;53.208;6.582;2022-08-19T02:11:22;15.20;;;9.30;;
54189;SDS011;40340;53.208;6.582;2022-08-19T02:13:51;14.70;;;9.95;;
54189;SDS011;40340;53.208;6.582;2022-08-19T02:16:18;13.48;;;9.55;;
54189;SDS011;40340;53.208;6.582;2022-08-19T02:18:45;12.63;;;9.07;;
54189;SDS011;40340;53.208;6.582;2022-08-19T02:21:13;15.18;;;9.50;;
54189;SDS011;40340;53.208;6.582;2022-08-19T02:23:43;12.45;;;9.27;;
54189;SDS011;40340;53.208;6.582;2022-08-19T02:26:09;12.80;;;9.20;;
54189;SDS011;40340;53.208;6.582;2022-08-19T02:28:35;10.95;;;9.20;;
54189;SDS011;40340;53.208;6.582;2022-08-19T02:31:01;13.85;;;9.35;;
54189;SDS011;40340;53.208;6.582;2022-08-19T02:33:28;13.18;;;8.57;;
54189;SDS011;40340;53.208;6.582;2022-08-19T02:35:53;12.17;;;8.67;;
54189;SDS011;40340;53.208;6.582;2022-08-19T02:38:19;13.20;;;9.60;;
54189;SDS011;40340;53.208;6.582;2022-08-19T02:40:52;12.60;;;8.73;;
54189;SDS011;40340;53.208;6.582;2022-08-19T02:43:20;13.13;;;7.85;;
54189;SDS011;40340;53.208;6.582;2022-08-19T02:45:47;10.63;;;7.75;;
54189;SDS011;40340;53.208;6.582;2022-08-19T02:48:17;10.50;;;7.90;;
54189;SDS011;40340;53.208;6.582;2022-08-19T02:50:44;10.38;;;8.07;;
54189;SDS011;40340;53.208;6.582;2022-08-19T02:53:10;10.20;;;7.43;;
54189;SDS011;40340;53.208;6.582;2022-08-19T02:55:41;10.43;;;7.53;;
54189;SDS011;40340;53.208;6.582;2022-08-19T02:58:08;10.80;;;7.40;;
54189;SDS011;40340;53.208;6.582;2022-08-19T03:00:35;13.38;;;7.65;;
54189;SDS011;40340;53.208;6.582;2022-08-19T03:03:00;11.23;;;8.00;;
54189;SDS011;40340;53.208;6.582;2022-08-19T03:05:26;12.00;;;7.70;;
54189;SDS011;40340;53.208;6.582;2022-08-19T03:07:52;10.13;;;7.63;;
54189;SDS011;40340;53.208;6.582;2022-08-19T03:10:18;11.73;;;7.27;;
54189;SDS011;40340;53.208;6.582;2022-08-19T03:12:44;9.43;;;7.17;;
54189;SDS011;40340;53.208;6.582;2022-08-19T03:15:11;10.52;;;7.68;;
54189;SDS011;40340;53.208;6.582;2022-08-19T03:17:36;10.07;;;7.67;;
54189;SDS011;40340;53.208;6.582;2022-08-19T03:20:02;11.13;;;8.03;;
54189;SDS011;40340;53.208;6.582;2022-08-19T03:24:55;10.13;;;7.60;;
54189;SDS011;40340;53.208;6.582;2022-08-19T03:27:21;11.60;;;8.13;;
54189;SDS011;40340;53.208;6.582;2022-08-19T03:29:47;10.65;;;7.93;;
54189;SDS011;40340;53.208;6.582;2022-08-19T03:32:13;9.97;;;7.70;;
54189;SDS011;40340;53.208;6.582;2022-08-19T03:34:38;11.27;;;9.18;;
54189;SDS011;40340;53.208;6.582;2022-08-19T03:37:05;11.30;;;8.57;;
54189;SDS011;40340;53.208;6.582;2022-08-19T03:39:33;11.60;;;8.07;;
54189;SDS011;40340;53.208;6.582;2022-08-19T03:42:02;13.13;;;8.73;;
54189;SDS011;40340;53.208;6.582;2022-08-19T03:44:28;15.17;;;9.13;;
54189;SDS011;40340;53.208;6.582;2022-08-19T03:46:55;13.07;;;8.85;;
54189;SDS011;40340;53.208;6.582;2022-08-19T03:49:24;11.52;;;8.23;;
54189;SDS011;40340;53.208;6.582;2022-08-19T03:51:52;10.05;;;7.88;;
54189;SDS011;40340;53.208;6.582;2022-08-19T03:56:46;10.75;;;8.02;;
54189;SDS011;40340;53.208;6.582;2022-08-19T03:59:15;12.02;;;8.38;;
54189;SDS011;40340;53.208;6.582;2022-08-19T04:01:43;11.38;;;8.40;;
54189;SDS011;40340;53.208;6.582;2022-08-19T04:04:09;12.10;;;8.70;;
54189;SDS011;40340;53.208;6.582;2022-08-19T04:06:35;12.20;;;8.73;;
54189;SDS011;40340;53.208;6.582;2022-08-19T04:09:03;13.35;;;9.35;;
54189;SDS011;40340;53.208;6.582;2022-08-19T04:11:33;13.55;;;9.18;;
54189;SDS011;40340;53.208;6.582;2022-08-19T04:14:00;12.57;;;9.45;;
54189;SDS011;40340;53.208;6.582;2022-08-19T04:16:27;13.20;;;9.43;;
54189;SDS011;40340;53.208;6.582;2022-08-19T04:21:21;12.30;;;9.25;;
54189;SDS011;40340;53.208;6.582;2022-08-19T04:23:48;13.48;;;9.45;;
54189;SDS011;40340;53.208;6.582;2022-08-19T04:26:14;13.82;;;9.75;;
54189;SDS011;40340;53.208;6.582;2022-08-19T04:28:42;13.02;;;10.07;;
54189;SDS011;40340;53.208;6.582;2022-08-19T04:31:12;14.93;;;9.77;;
54189;SDS011;40340;53.208;6.582;2022-08-19T04:33:40;13.27;;;9.93;;
54189;SDS011;40340;53.208;6.582;2022-08-19T04:36:06;13.25;;;9.43;;
54189;SDS011;40340;53.208;6.582;2022-08-19T04:38:32;12.57;;;9.15;;
54189;SDS011;40340;53.208;6.582;2022-08-19T04:40:58;13.83;;;9.43;;
54189;SDS011;40340;53.208;6.582;2022-08-19T04:43:42;13.48;;;9.73;;
54189;SDS011;40340;53.208;6.582;2022-08-19T04:46:12;15.65;;;9.90;;
54189;SDS011;40340;53.208;6.582;2022-08-19T04:48:39;14.70;;;9.30;;
54189;SDS011;40340;53.208;6.582;2022-08-19T04:51:06;12.80;;;9.30;;
54189;SDS011;40340;53.208;6.582;2022-08-19T04:53:34;12.52;;;10.02;;
54189;SDS011;40340;53.208;6.582;2022-08-19T04:56:04;12.43;;;8.52;;
54189;SDS011;40340;53.208;6.582;2022-08-19T04:58:35;14.15;;;9.98;;
54189;SDS011;40340;53.208;6.582;2022-08-19T05:01:02;15.38;;;10.18;;
54189;SDS011;40340;53.208;6.582;2022-08-19T05:03:28;14.38;;;10.25;;
54189;SDS011;40340;53.208;6.582;2022-08-19T05:05:59;14.57;;;10.40;;
54189;SDS011;40340;53.208;6.582;2022-08-19T05:08:32;15.20;;;10.18;;
54189;SDS011;40340;53.208;6.582;2022-08-19T05:10:58;14.18;;;10.27;;
54189;SDS011;40340;53.208;6.582;2022-08-19T05:13:25;15.82;;;11.20;;
54189;SDS011;40340;53.208;6.582;2022-08-19T05:15:58;12.57;;;10.02;;
54189;SDS011;40340;53.208;6.582;2022-08-19T05:18:24;13.48;;;10.20;;
54189;SDS011;40340;53.208;6.582;2022-08-19T05:21:10;13.43;;;9.60;;
54189;SDS011;40340;53.208;6.582;2022-08-19T05:23:58;17.45;;;10.63;;
54189;SDS011;40340;53.208;6.582;2022-08-19T05:26:24;18.20;;;10.83;;
54189;SDS011;40340;53.208;6.582;2022-08-19T05:28:53;16.38;;;10.52;;
54189;SDS011;40340;53.208;6.582;2022-08-19T05:31:20;14.90;;;10.88;;
54189;SDS011;40340;53.208;6.582;2022-08-19T05:33:46;16.83;;;11.27;;
54189;SDS011;40340;53.208;6.582;2022-08-19T05:36:12;21.43;;;11.07;;
54189;SDS011;40340;53.208;6.582;2022-08-19T05:38:38;16.65;;;11.63;;
54189;SDS011;40340;53.208;6.582;2022-08-19T05:41:11;16.53;;;11.67;;
54189;SDS011;40340;53.208;6.582;2022-08-19T05:43:38;15.82;;;11.52;;
54189;SDS011;40340;53.208;6.582;2022-08-19T05:46:04;16.60;;;11.47;;
54189;SDS011;40340;53.208;6.582;2022-08-19T05:48:31;15.45;;;11.13;;
54189;SDS011;40340;53.208;6.582;2022-08-19T05:51:03;14.25;;;10.80;;
54189;SDS011;40340;53.208;6.582;2022-08-19T05:53:31;22.52;;;11.48;;
54189;SDS011;40340;53.208;6.582;2022-08-19T05:55:57;17.38;;;12.18;;
54189;SDS011;40340;53.208;6.582;2022-08-19T05:58:23;16.67;;;12.00;;
54189;SDS011;40340;53.208;6.582;2022-08-19T06:03:15;15.00;;;11.18;;
54189;SDS011;40340;53.208;6.582;2022-08-19T06:05:41;15.10;;;11.30;;
54189;SDS011;40340;53.208;6.582;2022-08-19T06:08:07;14.83;;;10.67;;
54189;SDS011;40340;53.208;6.582;2022-08-19T06:10:32;14.47;;;10.20;;
54189;SDS011;40340;53.208;6.582;2022-08-19T06:12:58;16.00;;;10.67;;
54189;SDS011;40340;53.208;6.582;2022-08-19T06:15:24;16.10;;;11.07;;
54189;SDS011;40340;53.208;6.582;2022-08-19T06:17:53;16.73;;;10.18;;
54189;SDS011;40340;53.208;6.582;2022-08-19T06:20:18;12.47;;;10.00;;
54189;SDS011;40340;53.208;6.582;2022-08-19T06:25:14;15.10;;;9.50;;
54189;SDS011;40340;53.208;6.582;2022-08-19T06:27:40;12.87;;;9.47;;
54189;SDS011;40340;53.208;6.582;2022-08-19T06:30:07;14.55;;;10.45;;
54189;SDS011;40340;53.208;6.582;2022-08-19T06:32:33;12.65;;;9.25;;
54189;SDS011;40340;53.208;6.582;2022-08-19T06:34:58;12.90;;;9.50;;
54189;SDS011;40340;53.208;6.582;2022-08-19T06:37:24;15.07;;;9.57;;
54189;SDS011;40340;53.208;6.582;2022-08-19T06:39:50;14.23;;;9.83;;
54189;SDS011;40340;53.208;6.582;2022-08-19T06:42:16;16.77;;;9.83;;
54189;SDS011;40340;53.208;6.582;2022-08-19T06:44:44;12.40;;;9.27;;
54189;SDS011;40340;53.208;6.582;2022-08-19T06:47:14;15.50;;;9.38;;
54189;SDS011;40340;53.208;6.582;2022-08-19T06:49:41;13.20;;;8.35;;
54189;SDS011;40340;53.208;6.582;2022-08-19T06:52:07;12.53;;;8.63;;
54189;SDS011;40340;53.208;6.582;2022-08-19T06:54:33;13.20;;;9.13;;
54189;SDS011;40340;53.208;6.582;2022-08-19T06:57:01;12.35;;;8.77;;
54189;SDS011;40340;53.208;6.582;2022-08-19T06:59:27;12.43;;;8.73;;
54189;SDS011;40340;53.208;6.582;2022-08-19T07:01:55;12.50;;;8.57;;
54189;SDS011;40340;53.208;6.582;2022-08-19T07:04:26;11.80;;;8.40;;
54189;SDS011;40340;53.208;6.582;2022-08-19T07:06:58;12.10;;;8.40;;
54189;SDS011;40340;53.208;6.582;2022-08-19T07:09:28;12.85;;;8.15;;
54189;SDS011;40340;53.208;6.582;2022-08-19T07:11:54;13.23;;;8.45;;
54189;SDS011;40340;53.208;6.582;2022-08-19T07:14:22;14.45;;;8.25;;
54189;SDS011;40340;53.208;6.582;2022-08-19T07:16:50;12.70;;;8.50;;
54189;SDS011;40340;53.208;6.582;2022-08-19T07:19:18;12.93;;;8.02;;
54189;SDS011;40340;53.208;6.582;2022-08-19T07:21:45;10.65;;;7.65;;
54189;SDS011;40340;53.208;6.582;2022-08-19T07:24:12;13.10;;;8.93;;
54189;SDS011;40340;53.208;6.582;2022-08-19T07:26:39;10.63;;;8.30;;
54189;SDS011;40340;53.208;6.582;2022-08-19T07:29:06;9.68;;;8.13;;
54189;SDS011;40340;53.208;6.582;2022-08-19T07:31:33;11.02;;;8.23;;
54189;SDS011;40340;53.208;6.582;2022-08-19T07:34:03;13.38;;;9.27;;
54189;SDS011;40340;53.208;6.582;2022-08-19T07:36:32;14.80;;;8.10;;
54189;SDS011;40340;53.208;6.582;2022-08-19T07:39:00;11.05;;;8.23;;
54189;SDS011;40340;53.208;6.582;2022-08-19T07:41:32;11.70;;;8.70;;
54189;SDS011;40340;53.208;6.582;2022-08-19T07:44:00;14.10;;;9.23;;
54189;SDS011;40340;53.208;6.582;2022-08-19T07:46:30;10.98;;;8.43;;
54189;SDS011;40340;53.208;6.582;2022-08-19T07:48:56;11.18;;;8.68;;
54189;SDS011;40340;53.208;6.582;2022-08-19T07:51:22;10.33;;;8.27;;
54189;SDS011;40340;53.208;6.582;2022-08-19T07:53:48;13.57;;;8.55;;
54189;SDS011;40340;53.208;6.582;2022-08-19T07:56:16;9.65;;;7.72;;
54189;SDS011;40340;53.208;6.582;2022-08-19T07:58:44;16.98;;;8.50;;
54189;SDS011;40340;53.208;6.582;2022-08-19T08:01:12;12.18;;;7.88;;
54189;SDS011;40340;53.208;6.582;2022-08-19T08:03:41;12.85;;;8.75;;
54189;SDS011;40340;53.208;6.582;2022-08-19T08:06:26;10.88;;;9.20;;
54189;SDS011;40340;53.208;6.582;2022-08-19T08:09:11;11.05;;;7.50;;
54189;SDS011;40340;53.208;6.582;2022-08-19T08:11:42;10.45;;;7.40;;
54189;SDS011;40340;53.208;6.582;2022-08-19T08:14:17;10.70;;;8.40;;
54189;SDS011;40340;53.208;6.582;2022-08-19T08:16:48;15.88;;;8.73;;
54189;SDS011;40340;53.208;6.582;2022-08-19T08:19:15;12.00;;;8.80;;
54189;SDS011;40340;53.208;6.582;2022-08-19T08:21:42;12.75;;;8.38;;
54189;SDS011;40340;53.208;6.582;2022-08-19T08:24:08;16.10;;;7.50;;
54189;SDS011;40340;53.208;6.582;2022-08-19T08:26:34;11.90;;;7.80;;
54189;SDS011;40340;53.208;6.582;2022-08-19T08:28:59;12.50;;;7.03;;
54189;SDS011;40340;53.208;6.582;2022-08-19T08:31:25;9.83;;;6.90;;
54189;SDS011;40340;53.208;6.582;2022-08-19T08:33:51;8.83;;;6.33;;
54189;SDS011;40340;53.208;6.582;2022-08-19T08:36:17;9.03;;;6.57;;
54189;SDS011;40340;53.208;6.582;2022-08-19T08:38:43;9.48;;;7.05;;
54189;SDS011;40340;53.208;6.582;2022-08-19T08:41:30;11.30;;;7.40;;
54189;SDS011;40340;53.208;6.582;2022-08-19T08:44:05;8.68;;;6.82;;
54189;SDS011;40340;53.208;6.582;2022-08-19T08:49:25;10.63;;;7.70;;
54189;SDS011;40340;53.208;6.582;2022-08-19T08:54:49;13.55;;;9.63;;
54189;SDS011;40340;53.208;6.582;2022-08-19T08:57:23;10.32;;;7.80;;
54189;SDS011;40340;53.208;6.582;2022-08-19T08:59:52;15.20;;;9.88;;
54189;SDS011;40340;53.208;6.582;2022-08-19T09:02:19;16.20;;;9.38;;
54189;SDS011;40340;53.208;6.582;2022-08-19T09:04:45;14.43;;;10.53;;
54189;SDS011;40340;53.208;6.582;2022-08-19T09:07:19;11.68;;;9.02;;
54189;SDS011;40340;53.208;6.582;2022-08-19T09:15:49;10.80;;;8.27;;
54189;SDS011;40340;53.208;6.582;2022-08-19T09:18:22;12.70;;;9.82;;
54189;SDS011;40340;53.208;6.582;2022-08-19T09:20:48;21.42;;;8.98;;
54189;SDS011;40340;53.208;6.582;2022-08-19T09:23:14;10.18;;;8.07;;
54189;SDS011;40340;53.208;6.582;2022-08-19T09:25:40;9.45;;;7.85;;
54189;SDS011;40340;53.208;6.582;2022-08-19T09:28:06;19.00;;;9.77;;
54189;SDS011;40340;53.208;6.582;2022-08-19T09:30:33;11.95;;;9.13;;
54189;SDS011;40340;53.208;6.582;2022-08-19T09:33:04;11.40;;;7.93;;
54189;SDS011;40340;53.208;6.582;2022-08-19T09:35:30;10.85;;;8.23;;
54189;SDS011;40340;53.208;6.582;2022-08-19T09:37:56;11.93;;;7.97;;
54189;SDS011;40340;53.208;6.582;2022-08-19T09:40:22;10.20;;;8.23;;
54189;SDS011;40340;53.208;6.582;2022-08-19T09:45:15;10.35;;;8.18;;
54189;SDS011;40340;53.208;6.582;2022-08-19T09:47:42;9.00;;;6.97;;
54189;SDS011;40340;53.208;6.582;2022-08-19T09:52:34;11.87;;;6.90;;
54189;SDS011;40340;53.208;6.582;2022-08-19T09:55:03;11.32;;;7.28;;
54189;SDS011;40340;53.208;6.582;2022-08-19T09:57:32;9.20;;;5.35;;
54189;SDS011;40340;53.208;6.582;2022-08-19T09:59:58;10.90;;;7.65;;
54189;SDS011;40340;53.208;6.582;2022-08-19T10:04:50;7.38;;;5.85;;
54189;SDS011;40340;53.208;6.582;2022-08-19T10:07:35;7.47;;;6.18;;
54189;SDS011;40340;53.208;6.582;2022-08-19T10:10:03;8.50;;;5.80;;
54189;SDS011;40340;53.208;6.582;2022-08-19T10:12:31;7.25;;;6.00;;
54189;SDS011;40340;53.208;6.582;2022-08-19T10:14:57;10.23;;;6.32;;
54189;SDS011;40340;53.208;6.582;2022-08-19T10:17:23;12.05;;;8.20;;
54189;SDS011;40340;53.208;6.582;2022-08-19T10:19:50;10.95;;;7.03;;
54189;SDS011;40340;53.208;6.582;2022-08-19T10:22:16;9.40;;;7.32;;
54189;SDS011;40340;53.208;6.582;2022-08-19T10:24:43;10.48;;;6.78;;
54189;SDS011;40340;53.208;6.582;2022-08-19T10:27:09;13.93;;;6.60;;
54189;SDS011;40340;53.208;6.582;2022-08-19T10:29:34;9.32;;;7.07;;
54189;SDS011;40340;53.208;6.582;2022-08-19T10:32:00;12.00;;;7.85;;
54189;SDS011;40340;53.208;6.582;2022-08-19T10:34:28;10.52;;;8.07;;
54189;SDS011;40340;53.208;6.582;2022-08-19T10:36:54;10.38;;;7.97;;
54189;SDS011;40340;53.208;6.582;2022-08-19T10:39:21;14.68;;;8.20;;
54189;SDS011;40340;53.208;6.582;2022-08-19T10:44:12;13.60;;;9.23;;
54189;SDS011;40340;53.208;6.582;2022-08-19T10:46:40;13.13;;;8.27;;
54189;SDS011;40340;53.208;6.582;2022-08-19T10:49:08;12.60;;;7.28;;
54189;SDS011;40340;53.208;6.582;2022-08-19T10:51:35;9.73;;;7.85;;
54189;SDS011;40340;53.208;6.582;2022-08-19T10:54:21;11.02;;;9.27;;
54189;SDS011;40340;53.208;6.582;2022-08-19T10:56:46;12.88;;;9.40;;
54189;SDS011;40340;53.208;6.582;2022-08-19T10:59:25;16.42;;;9.25;;
54189;SDS011;40340;53.208;6.582;2022-08-19T11:01:52;12.55;;;8.88;;
54189;SDS011;40340;53.208;6.582;2022-08-19T11:04:19;11.20;;;8.48;;
54189;SDS011;40340;53.208;6.582;2022-08-19T11:06:46;12.88;;;9.30;;
54189;SDS011;40340;53.208;6.582;2022-08-19T11:09:16;11.38;;;9.07;;
54189;SDS011;40340;53.208;6.582;2022-08-19T11:11:44;13.02;;;8.35;;
54189;SDS011;40340;53.208;6.582;2022-08-19T11:14:11;9.10;;;7.05;;
54189;SDS011;40340;53.208;6.582;2022-08-19T11:16:39;10.50;;;8.65;;
54189;SDS011;40340;53.208;6.582;2022-08-19T11:19:06;10.73;;;7.38;;
54189;SDS011;40340;53.208;6.582;2022-08-19T11:21:37;13.00;;;8.63;;
54189;SDS011;40340;53.208;6.582;2022-08-19T11:24:07;10.68;;;7.50;;
54189;SDS011;40340;53.208;6.582;2022-08-19T11:26:35;10.07;;;6.88;;
54189;SDS011;40340;53.208;6.582;2022-08-19T11:29:03;7.63;;;6.70;;
54189;SDS011;40340;53.208;6.582;2022-08-19T11:31:31;9.57;;;8.00;;
54189;SDS011;40340;53.208;6.582;2022-08-19T11:33:59;12.93;;;8.13;;
54189;SDS011;40340;53.208;6.582;2022-08-19T11:36:26;9.18;;;7.20;;
54189;SDS011;40340;53.208;6.582;2022-08-19T11:38:53;9.02;;;7.80;;
54189;SDS011;40340;53.208;6.582;2022-08-19T11:41:19;13.02;;;8.90;;
54189;SDS011;40340;53.208;6.582;2022-08-19T11:43:47;9.98;;;7.00;;
54189;SDS011;40340;53.208;6.582;2022-08-19T11:46:14;9.40;;;7.10;;
54189;SDS011;40340;53.208;6.582;2022-08-19T11:48:41;8.45;;;6.50;;
54189;SDS011;40340;53.208;6.582;2022-08-19T11:51:08;9.23;;;7.30;;
54189;SDS011;40340;53.208;6.582;2022-08-19T11:53:38;10.32;;;8.05;;
54189;SDS011;40340;53.208;6.582;2022-08-19T11:58:31;10.23;;;7.68;;
54189;SDS011;40340;53.208;6.582;2022-08-19T12:03:22;12.75;;;7.95;;
54189;SDS011;40340;53.208;6.582;2022-08-19T12:08:15;10.82;;;8.73;;
54189;SDS011;40340;53.208;6.582;2022-08-19T12:10:41;13.25;;;9.05;;
54189;SDS011;40340;53.208;6.582;2022-08-19T12:13:08;12.35;;;8.77;;
54189;SDS011;40340;53.208;6.582;2022-08-19T12:15:38;14.18;;;9.20;;
54189;SDS011;40340;53.208;6.582;2022-08-19T12:18:06;9.77;;;8.27;;
54189;SDS011;40340;53.208;6.582;2022-08-19T12:20:37;11.25;;;8.35;;
54189;SDS011;40340;53.208;6.582;2022-08-19T12:23:04;14.10;;;8.27;;
54189;SDS011;40340;53.208;6.582;2022-08-19T12:25:32;11.88;;;8.38;;
54189;SDS011;40340;53.208;6.582;2022-08-19T12:27:59;9.77;;;7.63;;
54189;SDS011;40340;53.208;6.582;2022-08-19T12:30:25;14.90;;;10.15;;
54189;SDS011;40340;53.208;6.582;2022-08-19T12:32:51;11.45;;;8.93;;
54189;SDS011;40340;53.208;6.582;2022-08-19T12:35:17;10.70;;;8.88;;
54189;SDS011;40340;53.208;6.582;2022-08-19T12:37:45;11.63;;;8.38;;
54189;SDS011;40340;53.208;6.582;2022-08-19T12:40:11;11.25;;;8.20;;
54189;SDS011;40340;53.208;6.582;2022-08-19T12:42:38;9.45;;;7.35;;
54189;SDS011;40340;53.208;6.582;2022-08-19T12:45:08;12.60;;;7.95;;
54189;SDS011;40340;53.208;6.582;2022-08-19T12:47:36;22.50;;;8.35;;
54189;SDS011;40340;53.208;6.582;2022-08-19T12:52:28;9.55;;;7.80;;
54189;SDS011;40340;53.208;6.582;2022-08-19T12:54:54;10.48;;;7.40;;
54189;SDS011;40340;53.208;6.582;2022-08-19T12:57:26;11.00;;;7.05;;
54189;SDS011;40340;53.208;6.582;2022-08-19T12:59:52;11.20;;;7.07;;
54189;SDS011;40340;53.208;6.582;2022-08-19T13:02:18;10.18;;;7.22;;
54189;SDS011;40340;53.208;6.582;2022-08-19T13:07:10;11.90;;;7.85;;
54189;SDS011;40340;53.208;6.582;2022-08-19T13:09:36;10.82;;;7.38;;
54189;SDS011;40340;53.208;6.582;2022-08-19T13:12:02;12.88;;;7.80;;
54189;SDS011;40340;53.208;6.582;2022-08-19T13:14:32;10.30;;;8.77;;
54189;SDS011;40340;53.208;6.582;2022-08-19T13:16:58;14.55;;;8.23;;
54189;SDS011;40340;53.208;6.582;2022-08-19T13:19:24;13.27;;;9.05;;
54189;SDS011;40340;53.208;6.582;2022-08-19T13:21:50;15.43;;;9.50;;
54189;SDS011;40340;53.208;6.582;2022-08-19T13:24:16;11.90;;;8.00;;
54189;SDS011;40340;53.208;6.582;2022-08-19T13:26:42;12.98;;;8.13;;
54189;SDS011;40340;53.208;6.582;2022-08-19T13:29:08;12.20;;;8.07;;
54189;SDS011;40340;53.208;6.582;2022-08-19T13:31:53;10.93;;;8.00;;
54189;SDS011;40340;53.208;6.582;2022-08-19T13:34:37;15.65;;;9.98;;
54189;SDS011;40340;53.208;6.582;2022-08-19T13:37:04;15.93;;;8.95;;
54189;SDS011;40340;53.208;6.582;2022-08-19T13:41:57;15.88;;;9.85;;
54189;SDS011;40340;53.208;6.582;2022-08-19T13:44:26;10.55;;;7.68;;
54189;SDS011;40340;53.208;6.582;2022-08-19T13:46:55;11.68;;;7.07;;
54189;SDS011;40340;53.208;6.582;2022-08-19T13:49:27;11.02;;;5.82;;
54189;SDS011;40340;53.208;6.582;2022-08-19T13:51:55;7.78;;;5.28;;
54189;SDS011;40340;53.208;6.582;2022-08-19T13:54:20;8.43;;;5.78;;
54189;SDS011;40340;53.208;6.582;2022-08-19T13:56:46;9.20;;;6.25;;
54189;SDS011;40340;53.208;6.582;2022-08-19T13:59:12;10.77;;;7.10;;
54189;SDS011;40340;53.208;6.582;2022-08-19T14:01:38;9.68;;;7.22;;
54189;SDS011;40340;53.208;6.582;2022-08-19T14:04:04;8.30;;;6.05;;
54189;SDS011;40340;53.208;6.582;2022-08-19T14:06:31;8.57;;;5.75;;
54189;SDS011;40340;53.208;6.582;2022-08-19T14:08:56;8.63;;;5.57;;
54189;SDS011;40340;53.208;6.582;2022-08-19T14:11:22;9.90;;;5.90;;
54189;SDS011;40340;53.208;6.582;2022-08-19T14:13:48;11.55;;;6.35;;
54189;SDS011;40340;53.208;6.582;2022-08-19T14:16:14;9.30;;;6.50;;
54189;SDS011;40340;53.208;6.582;2022-08-19T14:18:40;10.30;;;6.05;;
54189;SDS011;40340;53.208;6.582;2022-08-19T14:21:07;10.75;;;6.07;;
54189;SDS011;40340;53.208;6.582;2022-08-19T14:23:38;12.30;;;8.02;;
54189;SDS011;40340;53.208;6.582;2022-08-19T14:26:05;13.33;;;9.70;;
54189;SDS011;40340;53.208;6.582;2022-08-19T14:28:39;14.52;;;9.32;;
54189;SDS011;40340;53.208;6.582;2022-08-19T14:31:07;16.17;;;9.75;;
54189;SDS011;40340;53.208;6.582;2022-08-19T14:33:33;11.45;;;8.27;;
54189;SDS011;40340;53.208;6.582;2022-08-19T14:35:58;15.97;;;10.13;;
54189;SDS011;40340;53.208;6.582;2022-08-19T14:38:25;14.25;;;9.23;;
54189;SDS011;40340;53.208;6.582;2022-08-19T14:40:51;15.40;;;9.00;;
54189;SDS011;40340;53.208;6.582;2022-08-19T14:43:17;12.80;;;8.95;;
54189;SDS011;40340;53.208;6.582;2022-08-19T14:45:43;20.13;;;9.85;;
54189;SDS011;40340;53.208;6.582;2022-08-19T14:48:09;12.32;;;8.82;;
54189;SDS011;40340;53.208;6.582;2022-08-19T14:50:35;12.93;;;8.20;;
54189;SDS011;40340;53.208;6.582;2022-08-19T14:53:05;11.43;;;7.68;;
54189;SDS011;40340;53.208;6.582;2022-08-19T14:55:33;12.05;;;8.77;;
54189;SDS011;40340;53.208;6.582;2022-08-19T14:57:59;13.70;;;8.38;;
54189;SDS011;40340;53.208;6.582;2022-08-19T15:00:24;13.93;;;9.20;;
54189;SDS011;40340;53.208;6.582;2022-08-19T15:02:50;13.18;;;9.70;;
54189;SDS011;40340;53.208;6.582;2022-08-19T15:05:16;14.52;;;9.60;;
54189;SDS011;40340;53.208;6.582;2022-08-19T15:07:42;14.55;;;9.32;;
54189;SDS011;40340;53.208;6.582;2022-08-19T15:10:09;15.43;;;8.90;;
54189;SDS011;40340;53.208;6.582;2022-08-19T15:12:37;14.63;;;9.35;;
54189;SDS011;40340;53.208;6.582;2022-08-19T15:15:05;13.43;;;8.80;;
54189;SDS011;40340;53.208;6.582;2022-08-19T15:17:32;12.98;;;8.20;;
54189;SDS011;40340;53.208;6.582;2022-08-19T15:19:58;12.37;;;7.57;;
54189;SDS011;40340;53.208;6.582;2022-08-19T15:22:23;14.10;;;7.93;;
54189;SDS011;40340;53.208;6.582;2022-08-19T15:24:49;13.83;;;8.00;;
54189;SDS011;40340;53.208;6.582;2022-08-19T15:27:14;13.90;;;7.20;;
54189;SDS011;40340;53.208;6.582;2022-08-19T15:29:40;10.05;;;6.38;;